createdAt,value
2023-04-10T00:02:27.213Z,14.67
2023-04-10T00:04:54.835Z,15.30
2023-04-10T00:07:22.062Z,13.70
2023-04-10T00:09:49.280Z,13.70
2023-04-10T00:12:16.827Z,14.23
2023-04-10T00:14:44.300Z,13.97
2023-04-10T00:17:12.569Z,13.60
2023-04-10T00:19:39.853Z,13.80
2023-04-10T00:22:07.218Z,15.00
2023-04-10T00:24:34.666Z,15.33
2023-04-10T00:27:02.959Z,14.63
2023-04-10T00:29:30.342Z,14.07
2023-04-10T00:31:57.957Z,13.10
2023-04-10T00:34:26.056Z,14.30
2023-04-10T00:36:53.330Z,14.60
2023-04-10T00:39:20.798Z,13.97
2023-04-10T00:41:48.149Z,14.10
2023-04-10T00:44:15.321Z,13.87
2023-04-10T00:46:42.770Z,13.80
2023-04-10T00:49:12.401Z,15.33
2023-04-10T00:51:40.104Z,15.40
2023-04-10T00:54:10.244Z,17.30
2023-04-10T00:56:37.642Z,13.83
2023-04-10T00:59:07.148Z,13.53
2023-04-10T01:01:35.159Z,13.00
2023-04-10T01:04:03.169Z,13.37
2023-04-10T01:06:47.129Z,14.23
2023-04-10T01:09:21.004Z,13.13
2023-04-10T01:11:52.420Z,14.63
2023-04-10T01:14:38.981Z,13.60
2023-04-10T01:17:08.904Z,13.40
2023-04-10T01:20:00.197Z,13.77
2023-04-10T01:22:47.684Z,14.43
2023-04-10T01:25:33.727Z,14.50
2023-04-10T01:28:27.884Z,15.43
2023-04-10T01:30:58.484Z,14.13
2023-04-10T01:33:29.081Z,15.30
2023-04-10T01:35:57.316Z,14.20
2023-04-10T01:38:26.609Z,14.23
2023-04-10T01:40:54.559Z,15.50
2023-04-10T01:43:28.698Z,14.53
2023-04-10T01:45:57.398Z,14.30
2023-04-10T01:48:25.484Z,14.10
2023-04-10T01:50:54.061Z,14.17
2023-04-10T01:53:21.530Z,13.07
2023-04-10T01:55:49.288Z,13.83
2023-04-10T01:58:17.411Z,14.13
2023-04-10T02:00:44.705Z,14.93
2023-04-10T02:03:15.036Z,14.40
2023-04-10T02:05:54.691Z,14.20
2023-04-10T02:08:27.569Z,16.10
2023-04-10T02:10:57.455Z,14.17
2023-04-10T02:13:26.705Z,14.10
2023-04-10T02:15:55.930Z,14.53
2023-04-10T02:18:23.842Z,13.23
2023-04-10T02:20:52.913Z,13.90
2023-04-10T02:23:21.269Z,13.37
2023-04-10T02:25:48.604Z,13.50
2023-04-10T02:28:16.803Z,13.40
2023-04-10T02:30:45.170Z,13.23
2023-04-10T02:33:14.605Z,13.60
2023-04-10T02:35:42.140Z,11.97
2023-04-10T02:38:09.577Z,13.20
2023-04-10T02:40:38.284Z,12.30
2023-04-10T02:43:13.771Z,13.70
2023-04-10T02:45:41.783Z,13.00
2023-04-10T02:48:11.266Z,11.90
2023-04-10T02:50:38.595Z,11.73
2023-04-10T02:53:06.060Z,12.33
2023-04-10T02:55:34.497Z,11.60
2023-04-10T02:58:01.762Z,12.87
2023-04-10T03:00:29.279Z,11.67
2023-04-10T03:03:15.110Z,11.97
2023-04-10T03:05:49.988Z,12.50
2023-04-10T03:08:21.323Z,12.30
2023-04-10T03:10:48.696Z,11.43
2023-04-10T03:13:16.561Z,12.80
2023-04-10T03:15:45.351Z,10.30
2023-04-10T03:18:16.028Z,12.13
2023-04-10T03:20:48.738Z,11.97
2023-04-10T03:23:16.340Z,11.90
2023-04-10T03:25:44.798Z,10.80
2023-04-10T03:28:12.117Z,12.00
2023-04-10T03:30:39.736Z,11.20
2023-04-10T03:33:07.263Z,11.17
2023-04-10T03:35:34.974Z,12.40
2023-04-10T03:38:02.593Z,11.17
2023-04-10T03:40:30.102Z,11.50
2023-04-10T03:42:58.398Z,13.10
2023-04-10T03:45:26.036Z,11.87
2023-04-10T03:47:53.516Z,12.03
2023-04-10T03:50:21.343Z,13.20
2023-04-10T03:52:57.034Z,11.03
2023-04-10T03:55:26.124Z,11.57
2023-04-10T03:57:54.401Z,11.23
2023-04-10T04:00:26.383Z,12.30
2023-04-10T04:03:07.642Z,11.07
2023-04-10T04:06:03.262Z,11.70
2023-04-10T04:08:38.722Z,11.17
2023-04-10T04:11:38.574Z,12.17
2023-04-10T04:14:24.941Z,11.77
2023-04-10T04:17:15.582Z,10.03
2023-04-10T04:20:03.539Z,12.67
2023-04-10T04:22:57.306Z,12.10
2023-04-10T04:25:46.243Z,11.70
2023-04-10T04:28:19.632Z,13.03
2023-04-10T04:31:12.780Z,11.30
2023-04-10T04:34:00.729Z,10.90
2023-04-10T04:36:49.438Z,13.00
2023-04-10T04:39:34.511Z,11.80
2023-04-10T04:42:30.930Z,11.70
2023-04-10T04:45:21.638Z,12.00
2023-04-10T04:48:21.297Z,11.67
2023-04-10T04:51:11.069Z,11.57
2023-04-10T04:53:51.670Z,10.60
2023-04-10T04:56:42.418Z,11.23
2023-04-10T04:59:30.270Z,11.57
2023-04-10T05:02:00.150Z,11.70
2023-04-10T05:04:42.811Z,11.10
2023-04-10T05:07:33.005Z,10.40
2023-04-10T05:10:14.712Z,11.37
2023-04-10T05:13:01.896Z,11.87
2023-04-10T05:15:39.186Z,12.03
2023-04-10T05:18:29.518Z,11.30
2023-04-10T05:21:21.267Z,11.50
2023-04-10T05:24:07.234Z,10.70
2023-04-10T05:26:53.394Z,11.37
2023-04-10T05:29:29.781Z,10.43
2023-04-10T05:32:08.995Z,11.63
2023-04-10T05:34:44.194Z,11.20
2023-04-10T05:37:14.340Z,11.30
2023-04-10T05:39:58.477Z,11.63
2023-04-10T05:42:43.361Z,11.90
2023-04-10T05:45:18.300Z,11.73
2023-04-10T05:48:03.225Z,11.50
2023-04-10T05:50:43.453Z,12.83
2023-04-10T05:53:15.629Z,11.00
2023-04-10T05:56:02.220Z,11.77
2023-04-10T05:58:42.804Z,11.13
2023-04-10T06:01:13.431Z,11.93
2023-04-10T06:03:54.403Z,11.50
2023-04-10T06:06:24.174Z,11.30
2023-04-10T06:08:51.348Z,11.20
2023-04-10T06:11:18.524Z,10.90
2023-04-10T06:13:51.030Z,11.83
2023-04-10T06:16:21.842Z,11.60
2023-04-10T06:18:52.293Z,12.23
2023-04-10T06:21:19.790Z,12.13
2023-04-10T06:23:46.926Z,10.13
2023-04-10T06:26:14.084Z,11.43
2023-04-10T06:28:42.085Z,11.93
2023-04-10T06:31:09.546Z,11.63
2023-04-10T06:33:38.983Z,11.03
2023-04-10T06:36:08.808Z,13.80
2023-04-10T06:38:42.417Z,11.90
2023-04-10T06:41:09.691Z,12.23
2023-04-10T06:43:37.935Z,12.13
2023-04-10T06:46:05.221Z,11.57
2023-04-10T06:48:32.927Z,12.93
2023-04-10T06:51:03.532Z,12.13
2023-04-10T06:53:30.893Z,12.77
2023-04-10T06:55:58.079Z,12.20
2023-04-10T06:58:25.229Z,13.53
2023-04-10T07:00:52.482Z,13.57
2023-04-10T07:03:19.733Z,12.53
2023-04-10T07:05:46.997Z,14.07
2023-04-10T07:08:14.196Z,12.20
2023-04-10T07:10:41.339Z,13.13
2023-04-10T07:13:08.507Z,14.00
2023-04-10T07:15:36.140Z,12.90
2023-04-10T07:18:03.498Z,12.90
2023-04-10T07:20:33.019Z,14.23
2023-04-10T07:23:00.875Z,13.37
2023-04-10T07:25:28.136Z,12.80
2023-04-10T07:27:55.312Z,13.20
2023-04-10T07:30:22.470Z,13.13
2023-04-10T07:32:49.865Z,13.37
2023-04-10T07:35:17.619Z,13.10
2023-04-10T07:37:44.838Z,12.90
2023-04-10T07:40:12.163Z,13.90
2023-04-10T07:42:39.371Z,14.63
2023-04-10T07:45:06.812Z,13.60
2023-04-10T07:47:34.037Z,13.30
2023-04-10T07:50:01.363Z,13.67
2023-04-10T07:52:28.558Z,13.00
2023-04-10T07:54:55.826Z,12.87
2023-04-10T07:57:24.338Z,14.27
2023-04-10T07:59:51.453Z,14.17
2023-04-10T08:02:18.718Z,13.07
2023-04-10T08:04:46.031Z,14.90
2023-04-10T08:07:13.345Z,13.23
2023-04-10T08:09:41.011Z,15.03
2023-04-10T08:12:11.087Z,13.53
2023-04-10T08:14:38.258Z,13.23
2023-04-10T08:17:05.718Z,13.97
2023-04-10T08:19:32.941Z,12.10
2023-04-10T08:22:00.166Z,12.77
2023-04-10T08:24:27.413Z,12.57
2023-04-10T08:26:54.554Z,11.77
2023-04-10T08:31:49.584Z,12.00
2023-04-10T08:34:16.769Z,12.10
2023-04-10T08:36:43.990Z,11.53
2023-04-10T08:39:11.230Z,11.57
2023-04-10T08:41:41.445Z,10.90
2023-04-10T08:44:08.629Z,12.07
2023-04-10T08:46:42.826Z,10.93
2023-04-10T08:49:12.563Z,10.43
2023-04-10T08:51:42.356Z,10.43
2023-04-10T08:54:13.696Z,11.60
2023-04-10T08:56:42.652Z,10.60
2023-04-10T08:59:10.949Z,11.80
2023-04-10T09:01:41.597Z,10.30
2023-04-10T09:04:09.055Z,10.17
2023-04-10T09:06:37.620Z,9.90
2023-04-10T09:09:10.685Z,10.57
2023-04-10T09:11:56.822Z,9.23
2023-04-10T09:14:25.134Z,9.83
2023-04-10T09:16:53.790Z,9.67
2023-04-10T09:19:30.906Z,9.67
2023-04-10T09:21:58.271Z,10.33
2023-04-10T09:24:28.218Z,8.87
2023-04-10T09:26:55.796Z,9.33
2023-04-10T09:29:22.989Z,8.80
2023-04-10T09:31:51.321Z,10.60
2023-04-10T09:34:20.513Z,9.50
2023-04-10T09:36:55.392Z,8.13
2023-04-10T09:39:22.663Z,9.17
2023-04-10T09:41:50.704Z,9.90
2023-04-10T09:44:19.920Z,9.53
2023-04-10T09:46:47.364Z,8.50
2023-04-10T09:49:14.568Z,9.60
2023-04-10T09:51:44.648Z,9.20
2023-04-10T09:54:14.694Z,8.50
2023-04-10T09:56:42.787Z,8.87
2023-04-10T09:59:10.925Z,9.10
2023-04-10T10:01:42.272Z,8.17
2023-04-10T10:04:10.973Z,8.67
2023-04-10T10:06:38.908Z,8.23
2023-04-10T10:09:06.320Z,8.40
2023-04-10T10:11:35.277Z,8.53
2023-04-10T10:14:04.013Z,9.40
2023-04-10T10:16:44.147Z,7.20
2023-04-10T10:19:30.505Z,8.40
2023-04-10T10:21:59.254Z,7.40
2023-04-10T10:24:26.982Z,8.43
2023-04-10T10:26:58.694Z,7.83
2023-04-10T10:29:25.985Z,8.27
2023-04-10T10:31:53.606Z,8.23
2023-04-10T10:34:21.673Z,8.23
2023-04-10T10:36:50.283Z,7.43
2023-04-10T10:39:33.281Z,7.93
2023-04-10T10:42:14.869Z,8.30
2023-04-10T10:44:51.533Z,8.17
2023-04-10T10:47:20.687Z,8.13
2023-04-10T10:49:58.225Z,8.00
2023-04-10T10:52:44.326Z,7.67
2023-04-10T10:55:35.045Z,7.77
2023-04-10T10:58:06.128Z,7.60
2023-04-10T11:00:52.808Z,6.63
2023-04-10T11:03:23.277Z,7.97
2023-04-10T11:05:55.055Z,8.50
2023-04-10T11:08:43.960Z,9.47
2023-04-10T11:11:18.295Z,8.20
2023-04-10T11:13:57.326Z,8.03
2023-04-10T11:16:41.908Z,8.13
2023-04-10T11:19:16.286Z,7.60
2023-04-10T11:22:00.979Z,7.20
2023-04-10T11:24:28.511Z,6.67
2023-04-10T11:26:56.669Z,7.90
2023-04-10T11:29:31.353Z,7.93
2023-04-10T11:32:00.058Z,7.03
2023-04-10T11:34:27.688Z,8.77
2023-04-10T11:36:55.674Z,8.03
2023-04-10T11:39:22.940Z,7.43
2023-04-10T11:41:51.379Z,7.83
2023-04-10T11:44:29.932Z,6.47
2023-04-10T11:46:58.720Z,5.70
2023-04-10T11:49:27.583Z,5.43
2023-04-10T11:51:55.338Z,5.70
2023-04-10T11:54:23.672Z,5.90
2023-04-10T11:57:01.403Z,5.33
2023-04-10T11:59:29.302Z,5.60
2023-04-10T12:02:06.835Z,5.77
2023-04-10T12:04:34.655Z,5.17
2023-04-10T12:07:02.013Z,5.70
2023-04-10T12:09:29.347Z,5.20
2023-04-10T12:11:59.501Z,5.20
2023-04-10T12:14:45.296Z,4.80
2023-04-10T12:17:15.287Z,5.20
2023-04-10T12:19:42.534Z,4.70
2023-04-10T12:22:15.686Z,4.50
2023-04-10T12:24:45.022Z,6.53
2023-04-10T12:27:26.502Z,4.90
2023-04-10T12:29:54.678Z,4.43
2023-04-10T12:32:23.168Z,4.80
2023-04-10T12:34:54.092Z,4.20
2023-04-10T12:37:21.357Z,5.77
2023-04-10T12:39:48.683Z,4.70
2023-04-10T12:42:17.416Z,4.30
2023-04-10T12:45:13.679Z,3.40
2023-04-10T12:47:46.828Z,3.93
2023-04-10T12:50:14.901Z,3.87
2023-04-10T12:52:44.391Z,4.03
2023-04-10T12:55:15.842Z,3.60
2023-04-10T12:57:45.516Z,3.90
2023-04-10T13:00:20.390Z,3.70
2023-04-10T13:02:48.398Z,3.80
2023-04-10T13:05:15.899Z,4.53
2023-04-10T13:07:43.220Z,3.80
2023-04-10T13:10:11.467Z,4.40
2023-04-10T13:12:41.857Z,4.10
2023-04-10T13:15:10.646Z,3.83
2023-04-10T13:17:38.320Z,4.10
2023-04-10T13:20:08.351Z,3.83
2023-04-10T13:22:36.819Z,4.70
2023-04-10T13:25:06.056Z,3.80
2023-04-10T13:27:34.883Z,4.60
2023-04-10T13:30:05.710Z,4.67
2023-04-10T13:32:33.378Z,4.53
2023-04-10T13:35:01.967Z,3.77
2023-04-10T13:37:30.295Z,3.70
2023-04-10T13:39:57.499Z,3.67
2023-04-10T13:42:24.714Z,3.80
2023-04-10T13:44:53.228Z,4.00
2023-04-10T13:47:20.422Z,4.77
2023-04-10T13:49:47.631Z,4.60
2023-04-10T13:52:15.323Z,3.43
2023-04-10T13:54:42.548Z,4.23
2023-04-10T13:57:10.846Z,3.40
2023-04-10T13:59:38.046Z,3.13
2023-04-10T14:02:05.844Z,3.57
2023-04-10T14:04:34.148Z,3.10
2023-04-10T14:07:02.053Z,3.90
2023-04-10T14:09:29.707Z,4.00
2023-04-10T14:11:58.134Z,3.67
2023-04-10T14:14:25.643Z,3.40
2023-04-10T14:16:55.008Z,3.13
2023-04-10T14:19:22.285Z,3.70
2023-04-10T14:21:49.460Z,3.30
2023-04-10T14:24:16.609Z,4.03
2023-04-10T14:26:43.803Z,3.50
2023-04-10T14:29:10.995Z,3.73
2023-04-10T14:31:50.574Z,4.10
2023-04-10T14:34:26.445Z,4.03
2023-04-10T14:36:55.871Z,4.23
2023-04-10T14:39:24.448Z,3.80
2023-04-10T14:41:52.082Z,3.60
2023-04-10T14:44:19.394Z,3.73
2023-04-10T14:46:47.561Z,3.63
2023-04-10T14:49:15.200Z,3.97
2023-04-10T14:51:46.007Z,4.03
2023-04-10T14:54:13.226Z,3.60
2023-04-10T14:56:40.478Z,3.67
2023-04-10T14:59:08.260Z,3.80
2023-04-10T15:01:35.737Z,4.07
2023-04-10T15:04:04.290Z,3.97
2023-04-10T15:06:33.310Z,3.37
2023-04-10T15:09:00.805Z,3.23
2023-04-10T15:11:29.678Z,5.10
2023-04-10T15:13:59.103Z,3.87
2023-04-10T15:16:26.571Z,3.30
2023-04-10T15:18:53.764Z,3.87
2023-04-10T15:21:22.079Z,4.33
2023-04-10T15:23:52.891Z,3.10
2023-04-10T15:26:21.235Z,2.83
2023-04-10T15:28:48.958Z,3.80
2023-04-10T15:31:16.656Z,3.43
2023-04-10T15:33:44.792Z,4.27
2023-04-10T15:36:12.145Z,3.13
2023-04-10T15:38:40.016Z,3.07
2023-04-10T15:41:10.999Z,3.10
2023-04-10T15:43:39.801Z,2.70
2023-04-10T15:46:07.177Z,3.33
2023-04-10T15:48:34.792Z,3.00
2023-04-10T15:51:06.892Z,4.27
2023-04-10T15:53:38.260Z,3.00
2023-04-10T15:56:07.550Z,3.50
2023-04-10T15:58:37.031Z,3.93
2023-04-10T16:01:04.345Z,5.40
2023-04-10T16:03:32.686Z,3.40
2023-04-10T16:06:00.043Z,3.63
2023-04-10T16:08:27.385Z,3.07
2023-04-10T16:10:54.679Z,3.10
2023-04-10T16:13:23.242Z,3.00
2023-04-10T16:15:51.717Z,3.20
2023-04-10T16:18:19.082Z,3.20
2023-04-10T16:20:46.328Z,2.50
2023-04-10T16:23:16.335Z,3.40
2023-04-10T16:25:43.580Z,2.70
2023-04-10T16:28:10.762Z,3.60
2023-04-10T16:30:39.740Z,3.17
2023-04-10T16:33:07.918Z,3.80
2023-04-10T16:35:36.182Z,3.83
2023-04-10T16:38:03.766Z,3.43
2023-04-10T16:40:33.124Z,3.40
2023-04-10T16:43:02.961Z,3.37
2023-04-10T16:45:30.406Z,2.97
2023-04-10T16:48:01.301Z,3.50
2023-04-10T16:50:29.464Z,3.80
2023-04-10T16:52:57.241Z,4.60
2023-04-10T16:55:24.662Z,5.07
2023-04-10T16:57:54.641Z,7.60
2023-04-10T17:00:21.878Z,4.80
2023-04-10T17:02:49.819Z,5.40
2023-04-10T17:05:17.203Z,3.60
2023-04-10T17:07:45.241Z,5.27
2023-04-10T17:10:12.516Z,4.00
2023-04-10T17:12:39.765Z,3.33
2023-04-10T17:15:07.277Z,2.90
2023-04-10T17:17:34.730Z,2.90
2023-04-10T17:20:02.945Z,3.53
2023-04-10T17:22:30.477Z,3.30
2023-04-10T17:24:57.687Z,3.60
2023-04-10T17:27:24.861Z,4.20
2023-04-10T17:29:52.887Z,3.60
2023-04-10T17:32:20.129Z,3.50
2023-04-10T17:34:47.886Z,3.93
2023-04-10T17:37:16.410Z,3.63
2023-04-10T17:39:44.808Z,4.13
2023-04-10T17:42:13.704Z,4.13
2023-04-10T17:44:40.865Z,4.30
2023-04-10T17:47:09.101Z,4.03
2023-04-10T17:49:39.797Z,4.33
2023-04-10T17:52:08.066Z,3.80
2023-04-10T17:54:37.404Z,4.20
2023-04-10T17:57:05.262Z,3.80
2023-04-10T17:59:33.883Z,4.07
2023-04-10T18:02:02.181Z,4.50
2023-04-10T18:04:29.855Z,4.40
2023-04-10T18:06:58.414Z,3.83
2023-04-10T18:09:25.884Z,4.40
2023-04-10T18:11:55.217Z,4.23
2023-04-10T18:14:22.357Z,5.10
2023-04-10T18:16:49.640Z,3.87
2023-04-10T18:19:16.819Z,4.00
2023-04-10T18:21:46.781Z,4.63
2023-04-10T18:24:16.021Z,4.50
2023-04-10T18:26:45.080Z,4.03
2023-04-10T18:29:12.277Z,4.17
2023-04-10T18:31:39.450Z,4.07
2023-04-10T18:34:08.623Z,4.67
2023-04-10T18:36:36.140Z,4.10
2023-04-10T18:39:04.611Z,5.10
2023-04-10T18:41:32.410Z,4.63
2023-04-10T18:44:05.531Z,3.80
2023-04-10T18:46:33.887Z,4.30
2023-04-10T18:49:01.709Z,4.27
2023-04-10T18:51:34.981Z,4.00
2023-04-10T18:54:02.627Z,4.73
2023-04-10T18:56:30.145Z,4.40
2023-04-10T18:58:57.327Z,4.20
2023-04-10T19:01:24.951Z,3.87
2023-04-10T19:03:56.014Z,4.10
2023-04-10T19:06:23.994Z,4.10
2023-04-10T19:08:52.688Z,4.07
2023-04-10T19:11:19.930Z,4.30
2023-04-10T19:13:48.666Z,4.43
2023-04-10T19:16:19.237Z,4.20
2023-04-10T19:18:47.266Z,4.20
2023-04-10T19:21:14.828Z,4.73
2023-04-10T19:23:43.033Z,4.33
2023-04-10T19:26:11.643Z,4.30
2023-04-10T19:28:40.063Z,3.80
2023-04-10T19:31:07.988Z,4.50
2023-04-10T19:33:35.413Z,4.67
2023-04-10T19:36:02.684Z,3.80
2023-04-10T19:38:31.525Z,4.13
2023-04-10T19:41:00.093Z,4.10
2023-04-10T19:43:27.301Z,4.90
2023-04-10T19:45:55.035Z,4.10
2023-04-10T19:48:24.386Z,4.00
2023-04-10T19:50:51.576Z,4.73
2023-04-10T19:53:19.143Z,4.23
2023-04-10T19:55:46.667Z,3.80
2023-04-10T19:58:35.591Z,4.00
2023-04-10T20:01:04.971Z,4.07
2023-04-10T20:03:32.731Z,4.73
2023-04-10T20:06:00.642Z,3.60
2023-04-10T20:08:27.866Z,4.03
2023-04-10T20:10:56.676Z,4.10
2023-04-10T20:13:28.023Z,5.50
2023-04-10T20:15:55.695Z,3.90
2023-04-10T20:18:22.928Z,4.50
2023-04-10T20:20:50.232Z,3.70
2023-04-10T20:23:17.635Z,3.73
2023-04-10T20:25:45.740Z,3.90
2023-04-10T20:28:12.972Z,4.40
2023-04-10T20:30:41.975Z,4.10
2023-04-10T20:33:09.173Z,4.03
2023-04-10T20:35:36.386Z,4.00
2023-04-10T20:38:04.668Z,4.40
2023-04-10T20:40:31.876Z,4.77
2023-04-10T20:43:00.366Z,4.40
2023-04-10T20:45:29.177Z,4.20
2023-04-10T20:47:57.713Z,4.40
2023-04-10T20:50:26.216Z,4.70
2023-04-10T20:52:53.500Z,4.33
2023-04-10T20:55:20.701Z,4.57
2023-04-10T20:57:47.885Z,4.20
2023-04-10T21:00:17.034Z,4.10
2023-04-10T21:02:44.329Z,4.63
2023-04-10T21:05:15.234Z,4.20
2023-04-10T21:07:45.713Z,5.07
2023-04-10T21:10:12.862Z,4.70
2023-04-10T21:12:40.332Z,5.40
2023-04-10T21:15:07.843Z,4.57
2023-04-10T21:17:38.202Z,4.40
2023-04-10T21:20:06.062Z,4.27
2023-04-10T21:22:33.677Z,4.23
2023-04-10T21:25:00.842Z,4.40
2023-04-10T21:27:28.021Z,4.07
2023-04-10T21:29:55.264Z,4.30
2023-04-10T21:32:22.550Z,4.40
2023-04-10T21:34:50.145Z,4.40
2023-04-10T21:37:17.646Z,4.90
2023-04-10T21:39:44.920Z,4.47
2023-04-10T21:42:12.212Z,4.37
2023-04-10T21:44:39.376Z,4.20
2023-04-10T21:47:06.619Z,3.80
2023-04-10T21:49:33.808Z,4.60
2023-04-10T21:52:01.014Z,4.27
2023-04-10T21:54:29.006Z,4.20
2023-04-10T21:56:57.447Z,3.70
2023-04-10T21:59:25.590Z,4.33
2023-04-10T22:01:52.997Z,4.33
2023-04-10T22:04:20.396Z,4.40
2023-04-10T22:06:48.142Z,4.17
2023-04-10T22:09:15.445Z,5.10
2023-04-10T22:11:43.190Z,4.40
2023-04-10T22:14:16.481Z,4.00
2023-04-10T22:16:45.206Z,3.93
2023-04-10T22:19:13.385Z,3.80
2023-04-10T22:21:40.787Z,4.50
2023-04-10T22:24:08.127Z,3.77
2023-04-10T22:26:35.791Z,4.03
2023-04-10T22:29:04.395Z,4.00
2023-04-10T22:31:31.559Z,3.90
2023-04-10T22:33:58.774Z,3.37
2023-04-10T22:36:31.396Z,4.20
2023-04-10T22:38:58.526Z,3.80
2023-04-10T22:41:25.847Z,3.93
2023-04-10T22:43:52.998Z,4.37
2023-04-10T22:46:20.226Z,3.80
2023-04-10T22:48:47.505Z,4.40
2023-04-10T22:51:14.857Z,4.10
2023-04-10T22:53:44.127Z,4.57
2023-04-10T22:56:11.581Z,4.30
2023-04-10T22:58:40.338Z,4.60
2023-04-10T23:01:10.527Z,4.20
2023-04-10T23:03:38.198Z,3.80
2023-04-10T23:06:05.772Z,4.40
2023-04-10T23:08:33.741Z,4.57
2023-04-10T23:11:01.314Z,4.70
2023-04-10T23:13:30.455Z,4.70
2023-04-10T23:15:58.845Z,4.23
2023-04-10T23:18:26.204Z,4.33
2023-04-10T23:20:53.650Z,4.67
2023-04-10T23:23:21.357Z,4.80
2023-04-10T23:25:58.222Z,4.77
2023-04-10T23:28:25.882Z,5.40
2023-04-10T23:30:53.263Z,4.93
2023-04-10T23:33:22.123Z,4.80
2023-04-10T23:35:50.697Z,4.47
2023-04-10T23:38:18.137Z,4.80
2023-04-10T23:40:46.440Z,4.77
2023-04-10T23:43:16.327Z,5.20
2023-04-10T23:45:45.850Z,5.60
2023-04-10T23:48:13.287Z,5.13
2023-04-10T23:50:40.645Z,5.27
2023-04-10T23:53:08.716Z,5.20
2023-04-10T23:55:36.567Z,3.90
2023-04-10T23:58:04.069Z,3.50
